Tiempo atmosférico en la estación meteorológica de Gaucín, Málaga (545 m.)



Fecha
DESCASC
Temp. máxima en grados centígrados (hora)
DESCASC
Temp. mínima en grados centígrados (hora)
DESCASC
Temp. media en grados centígrados
DESCASC
Racha de viento máxima en m/sg (hora)
DESCASC
Velocidad máxima media en intervalos de 10 minutos(hora)
DESCASC
Precipitaciones diarias en mm
DESCASC
Precipitaciones de 00:00 a 06:00 en mm
DESCASC
Precipitaciones de 06:00 a 12:00 en mm
DESCASC
Precipitaciones de 12:00 a 18:00 en mm
DESCASC
Precipitaciones de 18:00 a 24:00 en mm
DESCASC
25-04-2019 14.4 (18:20) 9.7 (22:50) 12 13.61 (04:40) 7.5 (06:20) 19 14.6 4.4 0 0
24-04-2019 12.4 (17:00) 7.6 (03:50) 10 14.17 (20:50) 6.67 (20:50) 12.4 3.2 3.4 0.8 5
23-04-2019 12.6 (14:40) 6.6 (10:10) 9.6 14.17 (17:30) 7.22 (03:00) 8.6 0 8.4 0.2 0
22-04-2019 18.2 (14:50) 8.7 (00:00) 13.5 12.78 (19:30) 5.83 (19:20) 0 0 0 0 0
21-04-2019 15.5 (13:50) 7.7 (00:00) 11.6 4.72 (15:10) 2.78 (07:40) 0.2 0 0 0.2 0
20-04-2019 17.2 (14:10) 6.7 (00:00) 12 6.67 (14:20) 3.89 (14:20) 4.4 0 0 0 4.4
19-04-2019 15.4 (19:10) 5.7 (00:00) 10.5 6.39 (22:50) 3.06 (07:50) 1 0 0 0.2 0.8
18-04-2019 14 (16:40) 7.8 (00:00) 10.9 10.56 (19:10) 5.28 (13:40) 7.2 1.4 5.4 0 0.4
17-04-2019 15.7 (14:00) 10.7 (00:00) 13.2 8.89 (14:20) 4.44 (15:30) 0.2 0 0 0 0.2
16-04-2019 21.4 (14:40) 8.3 (00:00) 14.8 7.22 (13:10) 4.72 (16:30) 0 0 0 0 0
15-04-2019 22.6 (14:50) 11.3 (00:00) 17 11.67 (15:20) 6.11 (15:20) 0 0 0 0 0
14-04-2019 23.1 (16:20) 9.5 (00:00) 16.3 7.22 (17:50) 4.44 (17:30) 0 0 0 0 0
13-04-2019 21 (16:30) 7.3 (00:00) 14.2 8.61 (21:10) 4.17 (15:10) 0 0 0 0 0
12-04-2019 19.6 (17:10) 6.4 (00:00) 13 6.94 (15:00) 3.61 (06:50) 0 0 0 0 0
11-04-2019 16.6 (16:40) 6.5 (00:00) 11.6 9.17 (14:20) 3.89 (14:20) 0 0 0 0 0
10-04-2019 14.9 (17:40) 5.6 (00:00) 10.2 12.22 (15:30) 4.17 (12:00) 0 0 0 0 0
09-04-2019 14.3 (16:10) 7.4 (00:00) 10.9 10.83 (02:20) 4.17 (18:50) 0 0 0 0 0
08-04-2019 14 (15:00) 9.2 (00:00) 11.6 11.39 (15:10) 6.11 (15:10) 2.2 0.4 0 0.2 1.6
07-04-2019 11.2 (21:20) 7.3 (00:00) 9.3 13.06 (10:50) 5.28 (18:10) 14.4 0.8 0.2 4.4 9
06-04-2019 10.2 (17:50) 5.3 (00:00) 7.8 16.67 (18:20) 5.83 (13:40) 10.2 1.2 6 2 1
05-04-2019 10.5 (18:10) 6.4 (00:00) 8.5 12.22 (16:40) 5.56 (08:30) 12.4 0 8.2 3.6 0.6
04-04-2019 15.2 (14:20) 6.2 (00:00) 10.7 11.39 (15:40) 6.11 (19:00) 0 0 0 0 0
03-04-2019 19.9 (16:20) 7 (00:00) 13.4 10.28 (23:20) 5 (23:20) 0 0 0 0 0
02-04-2019 17.6 (15:30) 6.5 (00:00) 12.1 7.22 (15:40) 3.89 (16:30) 0 0 0 0 0
01-04-2019 14.4 (19:30) 9 (00:00) 11.7 8.61 (06:20) 5 (06:20) 16.2 0.6 13.4 2.2 0
31-03-2019 15 (15:30) 9.4 (00:00) 12.2 6.67 (01:40) 3.61 (16:00) 6 4.8 1 0.2 0
30-03-2019 15.7 (13:30) 8.9 (00:00) 12.3 8.61 (10:40) 3.06 (08:30) 0.2 0 0 0 0.2
29-03-2019 13.8 (13:00) 8.4 (00:00) 11.1 6.67 (01:30) 2.78 (00:50) 0 0 0 0 0
28-03-2019 15.5 (14:30) 8.1 (00:00) 11.8 8.89 (15:20) 3.61 (23:10) 0 0 0 0 0
27-03-2019 15.2 (16:20) 8.7 (00:00) 11.9 21.11 (06:00) 5.56 (06:00) 0 0 0 0 0

Gráficas

Temp. máximas Temp. mínimas Temp. medias Precipitaciones Rachas de viento máximas Velocidades máximas media en intervalos de 10 minutos

Datos horarios

Fecha y hora oficial Temperatura (ºC) Velocidad del viento (km/h) Dirección del viento Racha (km/h) Dirección de racha Precipitación (mm) Presión (hPa) Tendencia (hPa) Humedad (%)
2019-04-25 23:00:00 9.8 4 Nordeste 15 Norte 0 -- -- 85
2019-04-25 22:00:00 10.5 4 Sudoeste 16 Norte 0 -- -- 81
2019-04-25 21:00:00 11.4 6 Oeste 21 Oeste 0 -- -- 75
2019-04-25 20:00:00 12.5 8 Oeste 33 Norte 0 -- -- 68
2019-04-25 19:00:00 13.7 10 Noroeste 33 Oeste 0 -- -- 59
2019-04-25 18:00:00 14 18 Oeste 45 Oeste 0 -- -- 59
2019-04-25 17:00:00 12.7 14 Oeste 28 Oeste 0 -- -- 74
2019-04-25 16:00:00 12.5 13 Noroeste 29 Oeste 0 -- -- 78
2019-04-25 15:00:00 12.3 6 Oeste 28 Norte 0 -- -- 80
2019-04-25 14:00:00 11.9 10 Noroeste 27 Noroeste 0 -- -- 81
2019-04-25 13:00:00 13.8 8 Norte 29 Norte 0 -- -- 75
2019-04-25 12:00:00 11.8 10 Noroeste 32 Nordeste 0 -- -- 84
2019-04-25 11:00:00 10.5 13 Noroeste 36 Noroeste 0.2 -- -- 89
2019-04-25 10:00:00 10.9 10 Noroeste 32 Noroeste 0.2 -- -- 95
2019-04-25 09:00:00 10.9 8 Noroeste 33 Norte 0.8 -- -- 97
2019-04-25 08:00:00 11.6 20 Sudoeste 47 Sudoeste 0.6 -- -- 97
2019-04-25 07:00:00 11.7 18 Sudoeste 48 Sudoeste 2.6 -- -- 97
2019-04-25 06:00:00 11.8 18 Sudoeste 42 Sudoeste 2.8 -- -- 97
2019-04-25 05:00:00 11.7 23 Sudoeste 49 Sudoeste 1.4 -- -- 97
2019-04-25 04:00:00 11.6 11 Sudoeste 40 Sur 3.6 -- -- 97
2019-04-25 03:00:00 11.5 14 Sudoeste 46 Sudoeste 2.4 -- -- 97
2019-04-25 02:00:00 11.5 13 Sudoeste 30 Sudoeste 1 -- -- 97
2019-04-25 01:00:00 11.4 14 Sudoeste 27 Sudoeste 3.4 -- -- 97
2019-04-25 00:00:00 11.3 15 Sudoeste 32 Sur 2.4 -- -- 96
2019-04-24 23:00:00 11.1 13 Sudoeste 36 Sudoeste 1.2 -- -- 96
2019-04-24 22:00:00 10.8 17 Sudoeste 40 Sudoeste 1.2 -- -- 95
2019-04-24 21:00:00 10.9 22 Sudoeste 51 Sudoeste 0.2 -- -- 91
2019-04-24 20:00:00 11.5 15 Sudoeste 36 Sudoeste 0 -- -- 85
2019-04-24 19:00:00 11.9 18 Sudoeste 36 Sudoeste 0 -- -- 84
2019-04-24 18:00:00 12.1 21 Sudoeste 37 Sur 0 -- -- 81
2019-04-24 17:00:00 12.4 18 Sudoeste 33 Sudoeste 0 -- -- 82
2019-04-24 16:00:00 11.1 17 Sudoeste 33 Sur 0.2 -- -- 89
2019-04-24 15:00:00 10.7 14 Sudoeste 32 Sudoeste 0 -- -- 93
2019-04-24 14:00:00 10.1 17 Sudoeste 30 Sudoeste 0 -- -- 95
2019-04-24 13:00:00 9.9 21 Sudoeste 41 Sudoeste 0.6 -- -- 96
2019-04-24 12:00:00 9.5 14 Sudoeste 26 Sudoeste 0.4 -- -- 95
2019-04-24 11:00:00 9.3 7 Sudoeste 17 Sur 0.6 -- -- 95
2019-04-24 10:00:00 9.1 9 Sudoeste 27 Sudoeste 0.2 -- -- 95
2019-04-24 09:00:00 8.3 12 Sudoeste 33 Sur 1.6 -- -- 94
2019-04-24 08:00:00 8.4 9 Sudoeste 23 Sudoeste 0.6 -- -- 93
2019-04-24 07:00:00 8.1 10 Sudoeste 20 Sudoeste 0 -- -- 91
2019-04-24 06:00:00 8 7 Oeste 18 Oeste 0 -- -- 86
2019-04-24 05:00:00 7.7 3 Oeste 25 Sudoeste 0 -- -- 87
2019-04-24 04:00:00 7.7 8 Noroeste 27 Noroeste 0.4 -- -- 86
2019-04-24 03:00:00 8.1 6 Sudoeste 36 Sudoeste 0.6 -- -- 89
2019-04-24 02:00:00 8 11 Oeste 28 Sudoeste 1.8 -- -- 90
2019-04-24 01:00:00 8.1 4 Noroeste 22 Noroeste 0.4 -- -- 84
2019-04-24 00:00:00 8.6 10 Oeste 23 Sudoeste 0 -- -- 76
2019-04-23 23:00:00 8.8 8 Oeste 36 Sudoeste 0 -- -- 76
2019-04-23 22:00:00 8.9 5 Oeste 22 Sudoeste 0 -- -- 73
2019-04-23 21:00:00 9.4 11 Sudoeste 30 Sur 0 -- -- 68
2019-04-23 20:00:00 10.5 9 Noroeste 28 Sudoeste 0 -- -- 63
2019-04-23 19:00:00 11.5 10 Oeste 38 Sudoeste 0 -- -- 60
2019-04-23 18:00:00 11.9 22 Sudoeste 51 Sudoeste 0 -- -- 53
2019-04-23 17:00:00 11.5 19 Sudoeste 37 Sudoeste 0 -- -- 57
2019-04-23 16:00:00 11.5 12 Oeste 32 Sudoeste 0 -- -- 59
2019-04-23 15:00:00 12.6 12 Noroeste 29 Norte 0 -- -- 58
2019-04-23 14:00:00 11.6 12 Noroeste 35 Norte 0 -- -- 59
2019-04-23 13:00:00 10.9 9 Oeste 39 Norte 0.2 -- -- 69
2019-04-23 12:00:00 10.1 10 Norte 35 Nordeste 0 -- -- 73
2019-04-23 11:00:00 7.6 12 Norte 45 Norte 0 -- -- 87
2019-04-23 10:00:00 6.7 15 Norte 39 Nordeste 0.2 -- -- 90
2019-04-23 09:00:00 8.5 13 Norte 28 Noroeste 0.8 -- -- 93
2019-04-23 08:00:00 9.6 13 Oeste 39 Sur 6.2 -- -- 94
2019-04-23 07:00:00 10.2 18 Sudoeste 33 Sur 1.2 -- -- 94
2019-04-23 06:00:00 10.8 17 Sudoeste 35 Sur 0 -- -- 88
2019-04-23 05:00:00 11 16 Sudoeste 41 Sudoeste 0 -- -- 86
2019-04-23 04:00:00 11.3 15 Sudoeste 39 Sur 0 -- -- 85
2019-04-23 03:00:00 11.6 26 Sudoeste 45 Sudoeste 0 -- -- 85
2019-04-23 02:00:00 11.5 21 Sudoeste 36 Sudoeste 0 -- -- 86
2019-04-23 01:00:00 11.7 7 Sudoeste 30 Sur 0 -- -- 80
2019-04-23 00:00:00 11.4 15 Sudoeste 39 Sudoeste 0 -- -- 86
2019-04-22 23:00:00 11.7 15 Sudoeste 30 Sudoeste 0 -- -- 86
2019-04-22 22:00:00 11.9 10 Sudoeste 30 Sudoeste 0 -- -- 86
2019-04-22 21:00:00 12.6 17 Sudoeste 34 Sudoeste 0 -- -- 85
2019-04-22 20:00:00 14.3 8 Sudoeste 46 Sur 0 -- -- 75
2019-04-22 19:00:00 15.9 15 Sudoeste 33 Sudoeste 0 -- -- 70
2019-04-22 18:00:00 16.1 13 Oeste 40 Sudoeste 0 -- -- 70
2019-04-22 17:00:00 17.5 15 Sudoeste 36 Sudoeste 0 -- -- 63
2019-04-22 16:00:00 17.4 17 Sudoeste 30 Sudoeste 0 -- -- 64
2019-04-22 15:00:00 18 13 Oeste 27 Oeste 0 -- -- 56
2019-04-22 14:00:00 17.2 11 Noroeste 27 Oeste 0 -- -- 53
2019-04-22 13:00:00 16.3 10 Sudoeste 24 Sudoeste 0 -- -- 59
2019-04-22 12:00:00 14.4 6 Oeste 25 Noroeste 0 -- -- 60
2019-04-22 11:00:00 14.3 7 Oeste 19 Oeste 0 -- -- 60
2019-04-22 10:00:00 13 2 Norte 13 Nordeste 0 -- -- 67
2019-04-22 09:00:00 10.1 6 Norte 19 Nordeste 0 -- -- 75
2019-04-22 08:00:00 10.1 4 Norte 23 Norte 0 -- -- 74
2019-04-22 07:00:00 10.2 9 Nordeste 29 Norte 0 -- -- 74
2019-04-22 06:00:00 9.2 8 Nordeste 21 Norte 0 -- -- 80
2019-04-22 05:00:00 9.1 4 Este 15 Norte 0 -- -- 81
2019-04-22 04:00:00 9.2 3 Sur 19 Nordeste 0 -- -- 82
2019-04-22 03:00:00 8.8 8 Norte 23 Norte 0 -- -- 86
2019-04-22 02:00:00 9.1 9 Norte 20 Norte 0 -- -- 85
2019-04-22 01:00:00 9.4 5 Norte 9 Norte 0 -- -- 84
2019-04-22 00:00:00 10 3 Sudoeste 9 Noroeste 0 -- -- 81
2019-04-21 23:00:00 11.1 3 Noroeste 12 Noroeste 0 -- -- 79
2019-04-21 22:00:00 11.5 2 Nordeste 16 Nordeste 0 -- -- 83
2019-04-21 21:00:00 12.1 3 Norte 9 Nordeste 0 -- -- 79
2019-04-21 20:00:00 12.8 2 Nordeste 13 Norte 0 -- -- 81
2019-04-21 19:00:00 13.5 2 Nordeste 16 Este 0 -- -- 78
2019-04-21 18:00:00 13.7 8 Nordeste 15 Nordeste 0 -- -- 77
2019-04-21 17:00:00 15.1 3 Nordeste 8 Nordeste 0 -- -- 71
2019-04-21 16:00:00 14.2 5 Norte 17 Norte 0 -- -- 77
2019-04-21 15:00:00 14.3 5 Nordeste 13 Norte 0.2 -- -- 75
2019-04-21 14:00:00 15.5 3 Este 10 Norte 0 -- -- 69
2019-04-21 13:00:00 13.9 3 Norte 9 Oeste 0 -- -- 77
2019-04-21 12:00:00 13.3 3 Nordeste 12 Norte 0 -- -- 79
2019-04-21 11:00:00 12 6 Nordeste 14 Norte 0 -- -- 85
2019-04-21 10:00:00 10.5 7 Norte 15 Norte 0 -- -- 94
2019-04-21 09:00:00 8.8 8 Nordeste 12 Nordeste 0 -- -- 96
2019-04-21 08:00:00 7.8 9 Norte 15 Norte 0 -- -- 96
2019-04-21 07:00:00 8.1 9 Norte 16 Norte 0 -- -- 93
2019-04-21 06:00:00 8.2 4 Norte 16 Norte 0 -- -- 95
2019-04-21 05:00:00 8.4 9 Norte 15 Norte 0 -- -- 91
2019-04-21 04:00:00 9.8 3 Nordeste 9 Este 0 -- -- 84
2019-04-21 03:00:00 9.9 4 Nordeste 8 Norte 0 -- -- 89
2019-04-21 02:00:00 10 3 Nordeste 9 Este 0 -- -- 90
2019-04-21 01:00:00 9.9 3 Nordeste 8 Nordeste 0 -- -- 91
2019-04-21 00:00:00 10.4 2 Sudoeste 6 Norte 0 -- -- 92
2019-04-20 23:00:00 10.6 2 Nordeste 7 Nordeste 0.2 -- -- 92
2019-04-20 22:00:00 10.9 5 Norte 9 Sudoeste 2.8 -- -- 92
2019-04-20 21:00:00 11.5 2 Sur 12 Sudoeste 1.2 -- -- 88
2019-04-20 20:00:00 12.1 9 Sudoeste 19 Sudoeste 0.2 -- -- 85
2019-04-20 19:00:00 14.1 12 Sudoeste 18 Sur 0 -- -- 75
2019-04-20 18:00:00 14.3 2 Norte 17 Norte 0 -- -- 73
2019-04-20 17:00:00 14.3 5 Norte 14 Norte 0 -- -- 76
2019-04-20 16:00:00 14.8 3 Oeste 13 Oeste 0 -- -- 65
2019-04-20 15:00:00 16.4 5 Sudoeste 24 Sudoeste 0 -- -- 65
2019-04-20 14:00:00 16.9 12 Sudoeste 21 Sudoeste 0 -- -- 61
2019-04-20 13:00:00 15.8 5 Norte 17 Nordeste 0 -- -- 57
2019-04-20 12:00:00 13.7 7 Norte 21 Norte 0 -- -- 74
2019-04-20 11:00:00 10.8 12 Norte 21 Norte 0 -- -- 83
2019-04-20 10:00:00 8.6 8 Nordeste 15 Nordeste 0 -- -- 91
2019-04-20 09:00:00 7.2 9 Norte 16 Nordeste 0 -- -- 92
2019-04-20 08:00:00 7.7 10 Norte 18 Norte 0 -- -- 88
2019-04-20 07:00:00 7.1 12 Nordeste 16 Nordeste 0 -- -- 92
2019-04-20 06:00:00 6.9 9 Norte 16 Norte 0 -- -- 92
2019-04-20 05:00:00 8.4 9 Nordeste 12 Norte 0 -- -- 84
2019-04-20 04:00:00 8 3 Norte 11 Norte 0 -- -- 89
2019-04-20 03:00:00 7.8 4 Norte 12 Nordeste 0 -- -- 91
2019-04-20 02:00:00 8.3 7 Norte 13 Norte 0 -- -- 91
2019-04-20 01:00:00 8.7 9 Norte 14 Norte 0 -- -- 89
2019-04-20 00:00:00 9.1 7 Norte 19 Norte 0 -- -- 89
2019-04-19 23:00:00 9.5 10 Norte 23 Norte 0.2 -- -- 92
2019-04-19 22:00:00 9.8 11 Norte 17 Norte 0.6 -- -- 90
2019-04-19 21:00:00 12.1 8 Norte 15 Norte 0 -- -- 75
2019-04-19 20:00:00 14.4 6 Sudoeste 15 Sudoeste 0 -- -- 64
2019-04-19 19:00:00 15.3 6 Sudoeste 12 Oeste 0 -- -- 63
2019-04-19 18:00:00 11.7 5 Norte 12 Norte 0 -- -- 76
2019-04-19 17:00:00 11 7 Norte 15 Norte 0 -- -- 83
2019-04-19 16:00:00 11.7 6 Norte 17 Norte 0 -- -- 76
2019-04-19 15:00:00 12.5 6 Sudeste 16 Nordeste 0.2 -- -- 73
2019-04-19 14:00:00 12.7 6 Nordeste 15 Sudoeste 0 -- -- 72
2019-04-19 13:00:00 13.4 3 Norte 11 Noroeste 0 -- -- 71
2019-04-19 12:00:00 14.1 6 Norte 12 Norte 0 -- -- 63
2019-04-19 11:00:00 13 4 Norte 15 Norte 0 -- -- 70
2019-04-19 10:00:00 9.6 6 Norte 15 Norte 0 -- -- 82
2019-04-19 09:00:00 6.8 10 Norte 13 Norte 0 -- -- 91
2019-04-19 08:00:00 5.7 10 Norte 15 Norte 0 -- -- 94
2019-04-19 07:00:00 6.1 5 Nordeste 11 Este 0 -- -- 94
2019-04-19 06:00:00 6.9 5 Norte 12 Norte 0 -- -- 94
2019-04-19 05:00:00 6.6 8 Nordeste 13 Nordeste 0 -- -- 95
2019-04-19 04:00:00 7.1 7 Norte 15 Norte 0 -- -- 94
2019-04-19 03:00:00 7.3 5 Nordeste 12 Norte 0 -- -- 92
2019-04-19 02:00:00 7.2 6 Nordeste 15 Norte 0 -- -- 92
2019-04-19 01:00:00 7.3 7 Nordeste 22 Norte 0 -- -- 93
2019-04-19 00:00:00 7.8 8 Norte 19 Norte 0 -- -- 89
2019-04-18 23:00:00 8.3 8 Norte 21 Norte 0.4 -- -- 88
2019-04-18 22:00:00 9.3 9 Norte 27 Norte 0 -- -- 79
2019-04-18 21:00:00 9.6 11 Norte 31 Norte 0 -- -- 80
2019-04-18 20:00:00 10.9 7 Norte 38 Sudoeste 0 -- -- 76
2019-04-18 19:00:00 12.7 14 Sudoeste 33 Sudoeste 0 -- -- 74
2019-04-18 18:00:00 13.5 16 Sudoeste 36 Sur 0 -- -- 67
2019-04-18 17:00:00 13.7 16 Sudoeste 30 Sudoeste 0 -- -- 69
2019-04-18 16:00:00 13.4 9 Sudoeste 28 Sudoeste 0 -- -- 69
2019-04-18 15:00:00 13.3 8 Oeste 30 Sudoeste 0 -- -- 73
2019-04-18 14:00:00 13.3 15 Sudoeste 31 Sudoeste 0 -- -- 70
2019-04-18 13:00:00 13.3 5 Sur 14 Sudoeste 0 -- -- 79
2019-04-18 12:00:00 11.9 3 Sur 11 Este 0 -- -- 81
2019-04-18 11:00:00 8.9 5 Nordeste 23 Norte 1.6 -- -- 93
2019-04-18 10:00:00 8.9 6 Norte 25 Oeste 3.6 -- -- 89
2019-04-18 09:00:00 10 0 Calma 9 Norte 0 -- -- 92
2019-04-18 08:00:00 9.4 0 Calma 11 Sudoeste 0.2 -- -- 92
2019-04-18 07:00:00 9.6 2 Noroeste 10 Oeste 0 -- -- 92
2019-04-18 06:00:00 9.9 0 Calma 8 Sudoeste 0 -- -- 93
2019-04-18 05:00:00 10 3 Oeste 19 Este 0.6 -- -- 91
2019-04-18 04:00:00 10.2 4 Sur 15 Este 0.2 -- -- 88
2019-04-18 03:00:00 11.1 3 Sur 14 Sudoeste 0.6 -- -- 79
2019-04-18 02:00:00 12 11 Sudoeste 23 Sudoeste 0 -- -- 68
2019-04-18 01:00:00 12.9 10 Sur 22 Sur 0 -- -- 63
2019-04-18 00:00:00 12.6 8 Este 16 Este 0 -- -- 66
2019-04-17 23:00:00 11.9 8 Este 19 Nordeste 0 -- -- 72
2019-04-17 22:00:00 10.9 7 Noroeste 23 Noroeste 0.2 -- -- 82
2019-04-17 21:00:00 11.8 9 Noroeste 24 Oeste 0 -- -- 87
2019-04-17 20:00:00 12.7 3 Sudoeste 13 Sur 0 -- -- 88
2019-04-17 19:00:00 13.1 6 Nordeste 21 Sudoeste 0 -- -- 84
2019-04-17 18:00:00 13.4 12 Sudoeste 20 Sudoeste 0 -- -- 81
2019-04-17 17:00:00 14.6 6 Sudoeste 21 Sudoeste 0 -- -- 71
2019-04-17 16:00:00 15.2 5 Sudoeste 26 Sudoeste 0 -- -- 70
2019-04-17 15:00:00 15.2 7 Oeste 32 Este 0 -- -- 70
2019-04-17 14:00:00 15.7 9 Sur 32 Sur 0 -- -- 67
2019-04-17 13:00:00 15.4 14 Sudoeste 31 Sudeste 0 -- -- 70
2019-04-17 12:00:00 14.9 6 Sur 24 Nordeste 0 -- -- 72
2019-04-17 11:00:00 14.9 6 Sur 18 Nordeste 0 -- -- 69
2019-04-17 10:00:00 14.1 5 Sudoeste 18 Sudoeste 0 -- -- 73
2019-04-17 09:00:00 13 7 Sudoeste 17 Noroeste 0 -- -- 68
2019-04-17 08:00:00 12.8 5 Oeste 26 Nordeste 0 -- -- 64
2019-04-17 07:00:00 12.6 7 Sudoeste 19 Nordeste 0 -- -- 62
2019-04-17 06:00:00 12.4 5 Oeste 15 Nordeste 0 -- -- 56
2019-04-17 05:00:00 13 4 Este 23 Norte 0 -- -- 58
2019-04-17 04:00:00 13.3 6 Nordeste 21 Este 0 -- -- 61
2019-04-17 03:00:00 13.9 8 Este 26 Nordeste 0 -- -- 58
2019-04-17 02:00:00 14.2 7 Este 24 Este 0 -- -- 48
2019-04-17 01:00:00 13.6 4 Este 14 Nordeste 0 -- -- 48
2019-04-17 00:00:00 13.2 3 Este 16 Sudeste 0 -- -- 52
2019-04-16 23:00:00 13.3 4 Nordeste 10 Nordeste 0 -- -- 59
2019-04-16 22:00:00 14 2 Sur 6 Sudoeste 0 -- -- 53
2019-04-16 21:00:00 15.1 4 Este 10 Nordeste 0 -- -- 47
2019-04-16 20:00:00 16.8 5 Sudoeste 17 Sudoeste 0 -- -- 56
2019-04-16 19:00:00 18.7 12 Sudoeste 17 Sudoeste 0 -- -- 53
2019-04-16 18:00:00 19.7 13 Sudoeste 22 Sudoeste 0 -- -- 50
2019-04-16 17:00:00 20.8 14 Sudoeste 25 Sudoeste 0 -- -- 43
2019-04-16 16:00:00 21 15 Sudoeste 24 Sudoeste 0 -- -- 37
2019-04-16 15:00:00 21.1 15 Sudoeste 26 Sudoeste 0 -- -- 34
2019-04-16 14:00:00 20.2 12 Sudoeste 26 Sudoeste 0 -- -- 32
2019-04-16 13:00:00 18.7 12 Sudoeste 23 Sudoeste 0 -- -- 45
2019-04-16 12:00:00 17.4 6 Sudoeste 13 Sudoeste 0 -- -- 52
2019-04-16 11:00:00 16.3 6 Sudoeste 13 Sur 0 -- -- 57
2019-04-16 10:00:00 12.7 6 Nordeste 15 Norte 0 -- -- 73
2019-04-16 09:00:00 8.7 11 Norte 18 Norte 0 -- -- 89
2019-04-16 08:00:00 9.8 8 Nordeste 13 Norte 0 -- -- 85
2019-04-16 07:00:00 8.6 11 Norte 16 Norte 0 -- -- 91
2019-04-16 06:00:00 8.3 8 Nordeste 17 Norte 0 -- -- 93
2019-04-16 05:00:00 8.8 6 Norte 15 Norte 0 -- -- 92
2019-04-16 04:00:00 9.9 8 Norte 18 Norte 0 -- -- 90
2019-04-16 03:00:00 10.1 8 Norte 17 Norte 0 -- -- 88
2019-04-16 02:00:00 10.7 6 Norte 22 Norte 0 -- -- 84
2019-04-16 01:00:00 11 5 Nordeste 23 Norte 0 -- -- 81
2019-04-16 00:00:00 11.3 10 Norte 23 Norte 0 -- -- 76
2019-04-15 23:00:00 12.4 8 Norte 30 Noroeste 0 -- -- 79
2019-04-15 22:00:00 13.8 9 Noroeste 29 Noroeste 0 -- -- 74
2019-04-15 21:00:00 14.5 11 Noroeste 36 Norte 0 -- -- 74
2019-04-15 20:00:00 16.9 6 Oeste 25 Oeste 0 -- -- 57
2019-04-15 19:00:00 19 12 Oeste 32 Noroeste 0 -- -- 46
2019-04-15 18:00:00 20.5 11 Noroeste 37 Sudoeste 0 -- -- 36
2019-04-15 17:00:00 21.1 22 Sudoeste 41 Sudoeste 0 -- -- 44
2019-04-15 16:00:00 21.9 15 Sudoeste 42 Sudoeste 0 -- -- 41
2019-04-15 15:00:00 22.3 17 Sudoeste 30 Sudoeste 0 -- -- 43
2019-04-15 14:00:00 22.4 5 Sudoeste 15 Sudoeste 0 -- -- 40
2019-04-15 13:00:00 21 3 Sur 14 Sudoeste 0 -- -- 42
2019-04-15 12:00:00 20.2 5 Sur 13 Sudoeste 0 -- -- 45
2019-04-15 11:00:00 18.7 6 Sudoeste 11 Sudoeste 0 -- -- 40
2019-04-15 10:00:00 17 0 Calma 8 Nordeste 0 -- -- 46
2019-04-15 09:00:00 15 4 Norte 6 Norte 0 -- -- 47
2019-04-15 08:00:00 14.6 3 Sudoeste 10 Oeste 0 -- -- 43
2019-04-15 07:00:00 15.8 5 Sur 10 Sur 0 -- -- 49
2019-04-15 06:00:00 16.3 4 Nordeste 8 Este 0 -- -- 48
2019-04-15 05:00:00 16.7 5 Este 8 Nordeste 0 -- -- 44
2019-04-15 04:00:00 16.1 0 Calma 9 Sudoeste 0 -- -- 45
2019-04-15 03:00:00 16.2 4 Oeste 7 Oeste 0 -- -- 46
2019-04-15 02:00:00 16.8 0 Calma 4 Sudeste 0 -- -- 54
2019-04-15 01:00:00 17.6 3 Sur 7 Nordeste 0 -- -- 55
2019-04-15 00:00:00 17.4 6 Nordeste 9 Nordeste 0 -- -- 55
2019-04-14 23:00:00 17.7 6 Nordeste 8 Norte 0 -- -- 54
2019-04-14 22:00:00 18 3 Este 9 Norte 0 -- -- 49
2019-04-14 21:00:00 18.6 2 Sudeste 7 Sur 0 -- -- 47
2019-04-14 20:00:00 19.8 0 Calma 11 Sudoeste 0 -- -- 49
2019-04-14 19:00:00 21.2 8 Sudoeste 18 Sudoeste 0 -- -- 41
2019-04-14 18:00:00 22.6 13 Sudoeste 26 Sudoeste 0 -- -- 42
2019-04-14 17:00:00 22.8 14 Sudoeste 23 Sudoeste 0 -- -- 39
2019-04-14 16:00:00 22.6 11 Sudoeste 24 Oeste 0 -- -- 39
2019-04-14 15:00:00 22.3 13 Sudoeste 24 Oeste 0 -- -- 40
2019-04-14 14:00:00 21.3 14 Sudoeste 24 Sudoeste 0 -- -- 43
2019-04-14 13:00:00 20.7 9 Sudoeste 21 Sudoeste 0 -- -- 45
2019-04-14 12:00:00 20.1 5 Sur 12 Sudoeste 0 -- -- 46
2019-04-14 11:00:00 18.7 3 Sudoeste 12 Nordeste 0 -- -- 51
2019-04-14 10:00:00 14.5 10 Nordeste 15 Nordeste 0 -- -- 61
2019-04-14 09:00:00 12.3 12 Nordeste 16 Norte 0 -- -- 63
2019-04-14 08:00:00 11.1 12 Nordeste 18 Norte 0 -- -- 66
2019-04-14 07:00:00 10.6 13 Norte 16 Norte 0 -- -- 69
2019-04-14 06:00:00 10.3 10 Norte 19 Norte 0 -- -- 70
2019-04-14 05:00:00 10 11 Norte 19 Norte 0 -- -- 73
2019-04-14 04:00:00 10.3 13 Norte 20 Norte 0 -- -- 72
2019-04-14 03:00:00 10.5 9 Norte 18 Norte 0 -- -- 72
2019-04-14 02:00:00 11.1 11 Norte 19 Noroeste 0 -- -- 69
2019-04-14 01:00:00 11.3 14 Norte 21 Norte 0 -- -- 68
2019-04-14 00:00:00 11.8 6 Norte 17 Nordeste 0 -- -- 65
2019-04-13 23:00:00 12.9 9 Nordeste 23 Norte 0 -- -- 62
2019-04-13 22:00:00 14.1 12 Nordeste 31 Nordeste 0 -- -- 57
2019-04-13 21:00:00 15.3 14 Norte 28 Nordeste 0 -- -- 54
2019-04-13 20:00:00 17.2 11 Norte 26 Norte 0 -- -- 51
2019-04-13 19:00:00 19.7 11 Noroeste 28 Noroeste 0 -- -- 40
2019-04-13 18:00:00 20.6 8 Norte 25 Noroeste 0 -- -- 39
2019-04-13 17:00:00 20.7 5 Sudeste 28 Sudoeste 0 -- -- 43
2019-04-13 16:00:00 20.4 15 Sudoeste 29 Sudoeste 0 -- -- 47
2019-04-13 15:00:00 20.5 9 Sudoeste 24 Sudoeste 0 -- -- 43
2019-04-13 14:00:00 20.2 7 Sudoeste 20 Este 0 -- -- 40
2019-04-13 13:00:00 19.2 4 Norte 21 Oeste 0 -- -- 34
2019-04-13 12:00:00 18.3 5 Nordeste 14 Noroeste 0 -- -- 37
2019-04-13 11:00:00 16.2 4 Este 12 Nordeste 0 -- -- 48
2019-04-13 10:00:00 12.3 11 Nordeste 14 Nordeste 0 -- -- 59
2019-04-13 09:00:00 8 13 Nordeste 15 Nordeste 0 -- -- 73
2019-04-13 08:00:00 7.9 12 Nordeste 15 Norte 0 -- -- 73
2019-04-13 07:00:00 7.3 14 Nordeste 17 Nordeste 0 -- -- 75
2019-04-13 06:00:00 7.8 13 Nordeste 18 Norte 0 -- -- 73
2019-04-13 05:00:00 8.1 12 Norte 17 Norte 0 -- -- 71
2019-04-13 04:00:00 8.7 11 Nordeste 15 Nordeste 0 -- -- 68
2019-04-13 03:00:00 9.8 10 Nordeste 12 Norte 0 -- -- 63
2019-04-13 02:00:00 10.2 8 Nordeste 16 Norte 0 -- -- 60
2019-04-13 01:00:00 11.2 9 Norte 22 Norte 0 -- -- 56
2019-04-13 00:00:00 12.2 10 Norte 21 Norte 0 -- -- 55
2019-04-12 23:00:00 12.5 9 Norte 23 Norte 0 -- -- 55
2019-04-12 22:00:00 13.5 10 Norte 23 Norte 0 -- -- 51
2019-04-12 21:00:00 15.1 6 Norte 22 Noroeste 0 -- -- 42
2019-04-12 20:00:00 16.6 8 Noroeste 25 Noroeste 0 -- -- 41
2019-04-12 19:00:00 18 11 Noroeste 25 Noroeste 0 -- -- 39
2019-04-12 18:00:00 19.3 8 Noroeste 21 Oeste 0 -- -- 41
2019-04-12 17:00:00 19.1 6 Noroeste 24 Noroeste 0 -- -- 41
2019-04-12 16:00:00 18.8 12 Sudoeste 22 Noroeste 0 -- -- 40
2019-04-12 15:00:00 18.3 11 Sudoeste 25 Sudoeste 0 -- -- 41
2019-04-12 14:00:00 18.6 5 Sudoeste 21 Noroeste 0 -- -- 37
2019-04-12 13:00:00 17.7 8 Norte 20 Noroeste 0 -- -- 35
2019-04-12 12:00:00 16.4 7 Norte 17 Norte 0 -- -- 43
2019-04-12 11:00:00 14.1 6 Nordeste 13 Norte 0 -- -- 59
2019-04-12 10:00:00 10.6 9 Nordeste 15 Nordeste 0 -- -- 70
2019-04-12 09:00:00 6.7 11 Norte 16 Norte 0 -- -- 86
2019-04-12 08:00:00 7 11 Nordeste 15 Norte 0 -- -- 84
2019-04-12 07:00:00 6.4 13 Nordeste 16 Nordeste 0 -- -- 88
2019-04-12 06:00:00 6.9 12 Nordeste 17 Norte 0 -- -- 87
2019-04-12 05:00:00 7.4 11 Norte 15 Norte 0 -- -- 85
2019-04-12 04:00:00 8.2 9 Norte 13 Norte 0 -- -- 84
2019-04-12 03:00:00 9.6 7 Nordeste 13 Norte 0 -- -- 77
2019-04-12 02:00:00 11.3 8 Noroeste 19 Norte 0 -- -- 67
2019-04-12 01:00:00 11.2 8 Noroeste 19 Noroeste 0 -- -- 71
2019-04-12 00:00:00 11 6 Norte 17 Norte 0 -- -- 76
2019-04-11 23:00:00 11.2 10 Norte 22 Norte 0 -- -- 77
2019-04-11 22:00:00 12.2 3 Norte 9 Este 0 -- -- 59
2019-04-11 21:00:00 13.3 3 Nordeste 12 Nordeste 0 -- -- 53
2019-04-11 20:00:00 15.3 5 Norte 14 Norte 0 -- -- 46
2019-04-11 19:00:00 16.3 7 Noroeste 25 Noroeste 0 -- -- 47
2019-04-11 18:00:00 16.3 10 Norte 32 Noroeste 0 -- -- 48
2019-04-11 17:00:00 16.5 10 Noroeste 29 Norte 0 -- -- 51
2019-04-11 16:00:00 16 12 Noroeste 32 Noroeste 0 -- -- 50
2019-04-11 15:00:00 15.9 12 Noroeste 33 Noroeste 0 -- -- 52
2019-04-11 14:00:00 15.7 13 Noroeste 31 Noroeste 0 -- -- 48
2019-04-11 13:00:00 15.4 11 Norte 27 Noroeste 0 -- -- 50
2019-04-11 12:00:00 14.8 5 Noroeste 21 Norte 0 -- -- 54
2019-04-11 11:00:00 13.5 5 Nordeste 9 Nordeste 0 -- -- 57
2019-04-11 10:00:00 10.2 5 Norte 13 Nordeste 0 -- -- 73
2019-04-11 09:00:00 7.3 8 Nordeste 12 Nordeste 0 -- -- 80
2019-04-11 08:00:00 6.8 5 Nordeste 13 Nordeste 0 -- -- 83
2019-04-11 07:00:00 6.7 6 Nordeste 13 Nordeste 0 -- -- 84
2019-04-11 06:00:00 7.4 5 Nordeste 11 Este 0 -- -- 80
2019-04-11 05:00:00 7.5 7 Nordeste 12 Nordeste 0 -- -- 83
2019-04-11 04:00:00 7.9 4 Nordeste 11 Nordeste 0 -- -- 82
2019-04-11 03:00:00 8.6 6 Nordeste 17 Norte 0 -- -- 81
2019-04-11 02:00:00 9.6 6 Nordeste 17 Norte 0 -- -- 77
2019-04-11 01:00:00 9.9 3 Nordeste 12 Este 0 -- -- 75
2019-04-11 00:00:00 10.2 5 Nordeste 23 Noroeste 0 -- -- 84
2019-04-10 23:00:00 10.6 5 Nordeste 24 Norte 0 -- -- 84
2019-04-10 22:00:00 11 6 Oeste 27 Norte 0 -- -- 80
2019-04-10 21:00:00 11.7 10 Oeste 27 Noroeste 0 -- -- 78
2019-04-10 20:00:00 12.9 14 Oeste 32 Noroeste 0 -- -- 71
2019-04-10 19:00:00 13.7 10 Noroeste 30 Noroeste 0 -- -- 61
2019-04-10 18:00:00 14.4 11 Noroeste 35 Norte 0 -- -- 53
2019-04-10 17:00:00 14.5 13 Noroeste 40 Norte 0 -- -- 53
2019-04-10 16:00:00 13.7 14 Norte 44 Nordeste 0 -- -- 54
2019-04-10 15:00:00 13.4 13 Noroeste 36 Nordeste 0 -- -- 57
2019-04-10 14:00:00 12.5 14 Noroeste 38 Norte 0 -- -- 59
2019-04-10 13:00:00 12 15 Noroeste 41 Norte 0 -- -- 61
2019-04-10 12:00:00 11.3 15 Norte 35 Noroeste 0 -- -- 62
2019-04-10 11:00:00 10.8 8 Norte 22 Norte 0 -- -- 68
2019-04-10 10:00:00 8.8 7 Nordeste 20 Norte 0 -- -- 79
2019-04-10 09:00:00 5.8 3 Este 11 Nordeste 0 -- -- 88
2019-04-10 08:00:00 5.6 6 Nordeste 12 Este 0 -- -- 90
2019-04-10 07:00:00 6.1 7 Nordeste 19 Norte 0 -- -- 91
2019-04-10 06:00:00 6.6 8 Nordeste 15 Nordeste 0 -- -- 91
2019-04-10 05:00:00 7.3 6 Nordeste 26 Norte 0 -- -- 89
2019-04-10 04:00:00 8.4 14 Norte 31 Norte 0 -- -- 86
2019-04-10 03:00:00 8.9 14 Norte 28 Norte 0 -- -- 85
2019-04-10 02:00:00 9.3 8 Nordeste 33 Nordeste 0 -- -- 85
2019-04-10 01:00:00 9.8 9 Norte 27 Norte 0 -- -- 85
2019-04-10 00:00:00 9.7 5 Oeste 20 Noroeste 0 -- -- 84
2019-04-09 23:00:00 9.7 5 Noroeste 24 Oeste 0 -- -- 83
2019-04-09 22:00:00 9.6 3 Sudeste 18 Noroeste 0 -- -- 81
2019-04-09 21:00:00 10.5 6 Oeste 33 Sudoeste 0 -- -- 77
2019-04-09 20:00:00 11.9 12 Oeste 28 Sudoeste 0 -- -- 69
2019-04-09 19:00:00 12.6 9 Oeste 30 Sudoeste 0 -- -- 68
2019-04-09 18:00:00 12.9 9 Oeste 36 Noroeste 0 -- -- 62
2019-04-09 17:00:00 13.2 11 Oeste 29 Sudoeste 0 -- -- 57
2019-04-09 16:00:00 13.9 9 Oeste 26 Noroeste 0 -- -- 69
2019-04-09 15:00:00 12.5 14 Oeste 31 Oeste 0 -- -- 64
2019-04-09 14:00:00 12.6 13 Oeste 26 Norte 0 -- -- 67
2019-04-09 13:00:00 11.2 7 Oeste 28 Norte 0 -- -- 73
2019-04-09 12:00:00 11.6 7 Oeste 30 Sudoeste 0 -- -- 73
2019-04-09 11:00:00 11.1 9 Noroeste 24 Norte 0 -- -- 78
2019-04-09 10:00:00 9.3 5 Norte 19 Norte 0 -- -- 85
2019-04-09 09:00:00 7.9 5 Nordeste 29 Norte 0 -- -- 87
2019-04-09 08:00:00 7.5 6 Nordeste 26 Norte 0 -- -- 86
2019-04-09 07:00:00 7.6 5 Nordeste 34 Nordeste 0 -- -- 84
2019-04-09 06:00:00 7.8 6 Nordeste 24 Norte 0 -- -- 81
2019-04-09 05:00:00 8.1 9 Norte 35 Nordeste 0 -- -- 80
2019-04-09 04:00:00 8.4 12 Norte 37 Norte 0 -- -- 83
2019-04-09 03:00:00 9 13 Norte 39 Noroeste 0 -- -- 84
2019-04-09 02:00:00 9.5 10 Noroeste 30 Norte 0 -- -- 83
2019-04-09 01:00:00 9.4 9 Oeste 28 Noroeste 0 -- -- 85
2019-04-09 00:00:00 9.2 10 Noroeste 27 Noroeste 0.2 -- -- 82
2019-04-08 23:00:00 9.7 5 Oeste 28 Norte 0 -- -- 85
2019-04-08 22:00:00 10.2 5 Oeste 18 Noroeste 0.8 -- -- 91
2019-04-08 21:00:00 10.7 8 Noroeste 23 Noroeste 0 -- -- 88
2019-04-08 20:00:00 10.7 7 Noroeste 30 Norte 0.4 -- -- 90
2019-04-08 19:00:00 11 8 Noroeste 28 Norte 0.2 -- -- 89
2019-04-08 18:00:00 11.9 6 Oeste 32 Oeste 0 -- -- 83
2019-04-08 17:00:00 12.5 10 Sudoeste 26 Sudoeste 0 -- -- 77
2019-04-08 16:00:00 12.4 12 Oeste 41 Sudoeste 0 -- -- 75
2019-04-08 15:00:00 14 18 Sudoeste 37 Sudoeste 0 -- -- 75
2019-04-08 14:00:00 12.1 8 Oeste 27 Sudoeste 0.2 -- -- 86
2019-04-08 13:00:00 12.5 15 Sudoeste 38 Sudoeste 0 -- -- 85
2019-04-08 12:00:00 11.9 13 Sudoeste 27 Sudoeste 0 -- -- 85
2019-04-08 11:00:00 11.7 13 Oeste 29 Sudoeste 0 -- -- 87
2019-04-08 10:00:00 11.3 0 Calma 7 Oeste 0 -- -- 90
2019-04-08 09:00:00 10.3 4 Noroeste 18 Noroeste 0 -- -- 89
2019-04-08 08:00:00 10.5 5 Norte 24 Noroeste 0 -- -- 88
2019-04-08 07:00:00 10.6 7 Noroeste 19 Oeste 0 -- -- 89
2019-04-08 06:00:00 10.8 10 Noroeste 24 Sudoeste 0 -- -- 88
2019-04-08 05:00:00 10.9 12 Sudoeste 28 Oeste 0 -- -- 90
2019-04-08 04:00:00 10.5 8 Sudoeste 19 Noroeste 0.2 -- -- 92
2019-04-08 03:00:00 10.8 5 Noroeste 18 Noroeste 0 -- -- 91
2019-04-08 02:00:00 11 7 Noroeste 19 Oeste 0 -- -- 88
2019-04-08 01:00:00 11 7 Oeste 29 Sudoeste 0.2 -- -- 91
2019-04-08 00:00:00 10.9 6 Oeste 25 Noroeste 0.2 -- -- 91
2019-04-07 23:00:00 11 13 Noroeste 26 Norte 0.4 -- -- 93
2019-04-07 22:00:00 11 10 Noroeste 35 Norte 0.8 -- -- 94
2019-04-07 21:00:00 11 12 Sudoeste 43 Sudoeste 2.2 -- -- 96
2019-04-07 20:00:00 10.9 17 Sudoeste 37 Sur 2.2 -- -- 96
2019-04-07 19:00:00 10.5 10 Sudoeste 35 Sudoeste 3.2 -- -- 96
2019-04-07 18:00:00 10.3 17 Sudoeste 37 Sudoeste 2.2 -- -- 95
2019-04-07 17:00:00 10.2 4 Sur 13 Noroeste 1 -- -- 92
2019-04-07 16:00:00 10.1 5 Norte 33 Oeste 0.2 -- -- 88
2019-04-07 15:00:00 10.1 4 Noroeste 28 Norte 0 -- -- 86
2019-04-07 14:00:00 9.6 9 Noroeste 23 Noroeste 0.8 -- -- 91
2019-04-07 13:00:00 9.8 4 Oeste 26 Sudoeste 0.2 -- -- 87
2019-04-07 12:00:00 9.9 10 Noroeste 22 Oeste 0.2 -- -- 81
2019-04-07 11:00:00 10.6 11 Noroeste 47 Oeste 0 -- -- 77
2019-04-07 10:00:00 9.1 4 Noroeste 16 Norte 0 -- -- 84
2019-04-07 09:00:00 8.3 6 Noroeste 25 Sudoeste 0 -- -- 85
2019-04-07 08:00:00 7.8 4 Noroeste 17 Noroeste 0 -- -- 85
2019-04-07 07:00:00 7.7 4 Norte 16 Noroeste 0 -- -- 86
2019-04-07 06:00:00 7.4 5 Noroeste 22 Norte 0 -- -- 88
2019-04-07 05:00:00 7.3 5 Norte 21 Norte 0.4 -- -- 88
2019-04-07 04:00:00 7.9 3 Noroeste 21 Sudoeste 0 -- -- 87
2019-04-07 03:00:00 8 6 Oeste 30 Noroeste 0 -- -- 86
2019-04-07 02:00:00 7.9 8 Noroeste 30 Norte 0.4 -- -- 88
2019-04-07 01:00:00 8.2 10 Sudoeste 29 Noroeste 0 -- -- 86
2019-04-07 00:00:00 8.2 4 Noroeste 33 Oeste 0.2 -- -- 88
2019-04-06 23:00:00 8.1 7 Noroeste 40 Noroeste 0.4 -- -- 87
2019-04-06 22:00:00 8.2 10 Oeste 33 Sur 0 -- -- 85
2019-04-06 21:00:00 8.5 13 Noroeste 44 Noroeste 0 -- -- 78
2019-04-06 20:00:00 8.7 12 Noroeste 37 Noroeste 0.2 -- -- 80
2019-04-06 19:00:00 9.2 12 Noroeste 60 Sudoeste 0.2 -- -- 79
2019-04-06 18:00:00 10.2 17 Sudoeste 39 Sudoeste 0 -- -- 74
2019-04-06 17:00:00 9 12 Oeste 35 Noroeste 1.2 -- -- 84
2019-04-06 16:00:00 8.2 9 Sudoeste 35 Sudoeste 0.2 -- -- 88
2019-04-06 15:00:00 8.5 8 Sudoeste 35 Noroeste 0 -- -- 83
2019-04-06 14:00:00 7.7 13 Sudoeste 41 Sudoeste 0.4 -- -- 89
2019-04-06 13:00:00 8.9 8 Norte 39 Sudoeste 0.2 -- -- 79
2019-04-06 12:00:00 8.3 15 Sudoeste 41 Sudoeste 0 -- -- 81
2019-04-06 11:00:00 8.7 5 Este 25 Norte 0.6 -- -- 83
2019-04-06 10:00:00 6.1 12 Noroeste 30 Oeste 2 -- -- 88
2019-04-06 09:00:00 5.7 2 Oeste 15 Noroeste 0.2 -- -- 90
2019-04-06 08:00:00 5.4 5 Oeste 37 Sudoeste 2.8 -- -- 89
2019-04-06 07:00:00 6 12 Sudoeste 26 Norte 0.4 -- -- 88
2019-04-06 06:00:00 5.9 10 Oeste 39 Sur 1.2 -- -- 87
2019-04-06 05:00:00 6.6 7 Oeste 20 Oeste 0 -- -- 85
2019-04-06 04:00:00 6.7 3 Noroeste 12 Norte 0 -- -- 84
2019-04-06 03:00:00 6.4 4 Este 15 Noroeste 0 -- -- 85
2019-04-06 02:00:00 6.4 3 Norte 27 Nordeste 0 -- -- 83
2019-04-06 01:00:00 6.3 8 Noroeste 27 Nordeste 0 -- -- 81
2019-04-06 00:00:00 6.4 6 Oeste 27 Noroeste 0 -- -- 82
2019-04-05 23:00:00 6.7 9 Noroeste 35 Noroeste 0 -- -- 82
2019-04-05 22:00:00 7 7 Noroeste 30 Noroeste 0.6 -- -- 83
2019-04-05 21:00:00 7.5 5 Norte 36 Noroeste 0 -- -- 76
2019-04-05 20:00:00 8.8 13 Noroeste 38 Norte 0 -- -- 66
2019-04-05 19:00:00 9.7 13 Oeste 44 Oeste 0 -- -- 62
2019-04-05 18:00:00 10.4 14 Oeste 36 Oeste 0 -- -- 57
2019-04-05 17:00:00 9.7 9 Oeste 44 Nordeste 0 -- -- 60
2019-04-05 16:00:00 9.6 11 Oeste 37 Nordeste 0 -- -- 67
2019-04-05 15:00:00 9.4 10 Noroeste 36 Nordeste 0 -- -- 75
2019-04-05 14:00:00 8.6 8 Noroeste 30 Norte 0 -- -- 89
2019-04-05 13:00:00 7.1 5 Norte 25 Noroeste 3.6 -- -- 93
2019-04-05 12:00:00 7.9 5 Sur 22 Sur 1.2 -- -- 94
2019-04-05 11:00:00 7.6 8 Sudoeste 29 Sur 0.4 -- -- 93
2019-04-05 10:00:00 7 7 Sudoeste 33 Sudoeste 0.6 -- -- 89
2019-04-05 09:00:00 7.3 15 Oeste 39 Sudeste 3.6 -- -- 94
2019-04-05 08:00:00 7.5 16 Sudoeste 33 Sudoeste 2 -- -- 94
2019-04-05 07:00:00 7.6 7 Sur 20 Sudoeste 0.4 -- -- 89
2019-04-05 06:00:00 8.1 7 Sudoeste 33 Sudoeste 0 -- -- 83
2019-04-05 05:00:00 8.4 17 Sudoeste 39 Sudoeste 0 -- -- 78
2019-04-05 04:00:00 8.3 14 Oeste 41 Sudoeste 0 -- -- 72
2019-04-05 03:00:00 8.3 4 Sudoeste 14 Noroeste 0 -- -- 75
2019-04-05 02:00:00 8 4 Norte 31 Sudoeste 0 -- -- 74
2019-04-05 01:00:00 7.9 5 Noroeste 18 Noroeste 0 -- -- 74
2019-04-05 00:00:00 7.7 11 Oeste 24 Noroeste 0 -- -- 70
2019-04-04 23:00:00 7.3 4 Noroeste 18 Sudoeste 0 -- -- 70
2019-04-04 22:00:00 8 5 Sudoeste 27 Noroeste 0 -- -- 64
2019-04-04 21:00:00 9.2 8 Noroeste 35 Sur 0 -- -- 58
2019-04-04 20:00:00 10.6 14 Sudoeste 37 Sudoeste 0 -- -- 61
2019-04-04 19:00:00 12.3 22 Sudoeste 37 Sudoeste 0 -- -- 62
2019-04-04 18:00:00 14.5 17 Sudoeste 36 Sudoeste 0 -- -- 47
2019-04-04 17:00:00 15.2 17 Sudoeste 37 Sudoeste 0 -- -- 48
2019-04-04 16:00:00 14.9 15 Sudoeste 41 Sudoeste 0 -- -- 48
2019-04-04 15:00:00 14.7 19 Sudoeste 37 Sudoeste 0 -- -- 48
2019-04-04 14:00:00 15.1 13 Oeste 27 Oeste 0 -- -- 46
2019-04-04 13:00:00 14.1 13 Sudoeste 31 Sur 0 -- -- 43
2019-04-04 12:00:00 13.3 8 Oeste 18 Sudoeste 0 -- -- 49
2019-04-04 11:00:00 12 5 Nordeste 11 Nordeste 0 -- -- 48
2019-04-04 10:00:00 8.9 7 Nordeste 10 Norte 0 -- -- 60
2019-04-04 09:00:00 6.2 8 Nordeste 12 Norte 0 -- -- 73
2019-04-04 08:00:00 6.7 6 Nordeste 12 Norte 0 -- -- 71
2019-04-04 07:00:00 7.5 6 Norte 11 Norte 0 -- -- 69
2019-04-04 06:00:00 7.5 4 Norte 9 Norte 0 -- -- 75
2019-04-04 05:00:00 7.6 3 Nordeste 8 Nordeste 0 -- -- 77
2019-04-04 04:00:00 8.2 3 Nordeste 9 Norte 0 -- -- 75
2019-04-04 03:00:00 8.6 5 Norte 16 Norte 0 -- -- 73
2019-04-04 02:00:00 9.7 7 Nordeste 40 Norte 0 -- -- 68
2019-04-04 01:00:00 11 19 Norte 40 Norte 0 -- -- 61
2019-04-04 00:00:00 10.7 13 Norte 37 Norte 0 -- -- 67
2019-04-03 23:00:00 11 18 Norte 34 Norte 0 -- -- 68
2019-04-03 22:00:00 11.8 9 Noroeste 30 Norte 0 -- -- 59
2019-04-03 21:00:00 13.1 14 Norte 30 Norte 0 -- -- 57
2019-04-03 20:00:00 15.4 6 Oeste 26 Noroeste 0 -- -- 49
2019-04-03 19:00:00 18 7 Noroeste 29 Oeste 0 -- -- 41
2019-04-03 18:00:00 19.3 12 Oeste 25 Oeste 0 -- -- 43
2019-04-03 17:00:00 19.9 7 Oeste 24 Oeste 0 -- -- 47
2019-04-03 16:00:00 19.6 8 Noroeste 24 Sudoeste 0 -- -- 39
2019-04-03 15:00:00 19.4 9 Oeste 28 Sudoeste 0 -- -- 41
2019-04-03 14:00:00 18.6 12 Sudoeste 31 Sudoeste 0 -- -- 50
2019-04-03 13:00:00 17.6 8 Sudoeste 20 Sur 0 -- -- 55
2019-04-03 12:00:00 16.5 7 Sudoeste 14 Sur 0 -- -- 58
2019-04-03 11:00:00 13.7 8 Nordeste 15 Norte 0 -- -- 70
2019-04-03 10:00:00 10.2 12 Nordeste 17 Norte 0 -- -- 82
2019-04-03 09:00:00 8 12 Norte 17 Norte 0 -- -- 87
2019-04-03 08:00:00 7.3 12 Norte 17 Norte 0 -- -- 91
2019-04-03 07:00:00 7.8 11 Norte 15 Norte 0 -- -- 89
2019-04-03 06:00:00 7.9 12 Norte 16 Norte 0 -- -- 91
2019-04-03 05:00:00 8.7 10 Norte 15 Norte 0 -- -- 89
2019-04-03 04:00:00 10 7 Nordeste 13 Nordeste 0 -- -- 84
2019-04-03 03:00:00 10.1 3 Nordeste 11 Norte 0 -- -- 87
2019-04-03 02:00:00 10.6 4 Norte 13 Norte 0 -- -- 86
2019-04-03 01:00:00 11.2 5 Nordeste 11 Nordeste 0 -- -- 83
2019-04-03 00:00:00 11.9 4 Nordeste 10 Norte 0 -- -- 81
2019-04-02 23:00:00 11.9 6 Nordeste 12 Norte 0 -- -- 82
2019-04-02 22:00:00 12.7 4 Norte 7 Nordeste 0 -- -- 78
2019-04-02 21:00:00 12.9 0 Calma 9 Este 0 -- -- 77
2019-04-02 20:00:00 14.2 3 Sudoeste 8 Sur 0 -- -- 73
2019-04-02 19:00:00 14.3 3 Sur 16 Sudoeste 0 -- -- 71
2019-04-02 18:00:00 14.9 10 Sudoeste 19 Sudoeste 0 -- -- 69
2019-04-02 17:00:00 16.2 13 Sudoeste 24 Sudoeste 0 -- -- 67
2019-04-02 16:00:00 16.9 13 Sudoeste 26 Sudoeste 0 -- -- 63
2019-04-02 15:00:00 17.1 10 Sudoeste 22 Sudoeste 0 -- -- 59
2019-04-02 14:00:00 17.3 11 Sudoeste 22 Sudoeste 0 -- -- 55
2019-04-02 13:00:00 16.2 10 Sudoeste 17 Sudoeste 0 -- -- 59
2019-04-02 12:00:00 14.9 5 Sudoeste 11 Sur 0 -- -- 63
2019-04-02 11:00:00 13.1 4 Nordeste 11 Nordeste 0 -- -- 72
2019-04-02 10:00:00 8.9 10 Nordeste 16 Nordeste 0 -- -- 86
2019-04-02 09:00:00 7.2 10 Nordeste 14 Nordeste 0 -- -- 89
2019-04-02 08:00:00 7.4 10 Nordeste 13 Norte 0 -- -- 88
2019-04-02 07:00:00 8.2 8 Nordeste 14 Norte 0 -- -- 86
2019-04-02 06:00:00 7.2 11 Nordeste 14 Nordeste 0 -- -- 92
2019-04-02 05:00:00 8.9 4 Norte 15 Norte 0 -- -- 90
2019-04-02 04:00:00 8.3 2 Nordeste 13 Nordeste 0 -- -- 92
2019-04-02 03:00:00 8.6 6 Nordeste 12 Norte 0 -- -- 91
2019-04-02 02:00:00 8.9 4 Nordeste 10 Norte 0 -- -- 91
2019-04-02 01:00:00 9.6 0 Calma 8 Norte 0 -- -- 88
2019-04-02 00:00:00 10.5 2 Norte 7 Norte 0 -- -- 85
2019-04-01 23:00:00 10.8 4 Nordeste 7 Nordeste 0 -- -- 85
2019-04-01 22:00:00 10.9 3 Norte 9 Sudoeste 0 -- -- 83
2019-04-01 21:00:00 11.8 7 Sudoeste 20 Sudoeste 0 -- -- 82
2019-04-01 20:00:00 13.2 10 Sudoeste 21 Sudoeste 0 -- -- 78
2019-04-01 19:00:00 14.1 8 Sudoeste 26 Sur 0 -- -- 80
2019-04-01 18:00:00 13.4 12 Sudoeste 24 Sur 0.8 -- -- 84
2019-04-01 17:00:00 12.7 10 Sudoeste 19 Sudoeste 0.2 -- -- 87
2019-04-01 16:00:00 12.7 5 Sur 15 Este 0 -- -- 89
2019-04-01 15:00:00 12.5 5 Sur 12 Sur 0 -- -- 94
2019-04-01 14:00:00 11.1 4 Sudoeste 10 Sur 0.4 -- -- 95
2019-04-01 13:00:00 10.4 5 Sudoeste 14 Sur 0.8 -- -- 95
2019-04-01 12:00:00 10.1 4 Sur 8 Sur 2.8 -- -- 95
2019-04-01 11:00:00 10.3 5 Sudoeste 10 Sudoeste 1.4 -- -- 94
2019-04-01 10:00:00 9.6 0 Calma 8 Noroeste 0 -- -- 95
2019-04-01 09:00:00 9.1 5 Norte 10 Norte 0.8 -- -- 95
2019-04-01 08:00:00 9.1 4 Noroeste 12 Este 4 -- -- 95
2019-04-01 07:00:00 9.6 6 Sur 31 Sur 4.4 -- -- 95
2019-04-01 06:00:00 10.5 4 Sur 9 Sur 0.6 -- -- 94
2019-04-01 05:00:00 10.4 0 Calma 6 Este 0 -- -- 91
2019-04-01 04:00:00 10.5 0 Calma 3 Este 0 -- -- 92
2019-04-01 03:00:00 10.3 0 Calma 5 Sudoeste 0 -- -- 92
2019-04-01 02:00:00 10.3 3 Oeste 14 Sur 0 -- -- 89
2019-04-01 01:00:00 10.7 4 Oeste 13 Sur 0 -- -- 89
2019-04-01 00:00:00 11.4 5 Sudoeste 20 Sur 0 -- -- 92
2019-03-31 23:00:00 11.5 5 Sudoeste 15 Sudoeste 0 -- -- 92
2019-03-31 22:00:00 11.7 9 Sudoeste 18 Sudoeste 0 -- -- 94
2019-03-31 21:00:00 11.5 3 Sur 14 Sudoeste 0 -- -- 95
2019-03-31 20:00:00 11.8 9 Sudoeste 17 Sur 0 -- -- 93
2019-03-31 19:00:00 12.6 9 Sudoeste 14 Sudoeste 0 -- -- 91
2019-03-31 18:00:00 13.1 11 Sudoeste 17 Sudoeste 0 -- -- 89
2019-03-31 17:00:00 13.7 10 Sudoeste 17 Sudoeste 0.2 -- -- 88
2019-03-31 16:00:00 14.3 13 Sudoeste 19 Sudoeste 0 -- -- 80
2019-03-31 15:00:00 13.8 8 Sudoeste 19 Sudoeste 0 -- -- 82
2019-03-31 14:00:00 14.2 9 Sudoeste 16 Sur 0 -- -- 81
2019-03-31 13:00:00 12.7 4 Sudoeste 15 Sudoeste 0 -- -- 89
2019-03-31 12:00:00 11.6 2 Sudoeste 8 Sudoeste 0 -- -- 95
2019-03-31 11:00:00 10.8 5 Sudoeste 8 Sudoeste 0 -- -- 95
2019-03-31 10:00:00 9.7 4 Norte 8 Norte 0.8 -- -- 96
2019-03-31 09:00:00 9.6 0 Calma 4 Norte 0 -- -- 96
2019-03-31 08:00:00 9.5 0 Calma 4 Nordeste 0.2 -- -- 95
2019-03-31 07:00:00 9.6 0 Calma 4 Sudoeste 0 -- -- 95
2019-03-31 06:00:00 9.6 3 Sudoeste 6 Sudoeste 0 -- -- 95
2019-03-31 05:00:00 9.8 2 Este 6 Sudeste 0.6 -- -- 94
2019-03-31 03:00:00 10.2 6 Sudoeste 24 Nordeste 1.6 -- -- 92
2019-03-31 01:00:00 10.2 4 Oeste 14 Este 0.8 -- -- 92
2019-03-31 00:00:00 10.2 7 Sudoeste 21 Norte 0.2 -- -- 90
2019-03-30 23:00:00 10.7 4 Oeste 13 Sudeste 0 -- -- 83
2019-03-30 22:00:00 10.7 3 Sudeste 15 Sudoeste 0 -- -- 79
2019-03-30 21:00:00 10.5 4 Oeste 10 Nordeste 0 -- -- 80
2019-03-30 20:00:00 10.5 3 Noroeste 18 Norte 0 -- -- 82
2019-03-30 19:00:00 10.8 4 Sudoeste 10 Sudoeste 0 -- -- 84
2019-03-30 18:00:00 11.3 4 Oeste 13 Oeste 0 -- -- 82
2019-03-30 17:00:00 11.1 6 Sudoeste 18 Oeste 0 -- -- 82
2019-03-30 16:00:00 12.1 6 Sur 27 Este 0 -- -- 76
2019-03-30 15:00:00 13.8 9 Sur 23 Sur 0 -- -- 68
2019-03-30 14:00:00 15 8 Oeste 27 Oeste 0 -- -- 65
2019-03-30 13:00:00 15 11 Sur 23 Sudoeste 0 -- -- 62
2019-03-30 12:00:00 13.3 8 Norte 28 Norte 0 -- -- 68
2019-03-30 11:00:00 12.8 8 Oeste 31 Nordeste 0 -- -- 69
2019-03-30 10:00:00 12 8 Oeste 21 Sudoeste 0 -- -- 68
2019-03-30 09:00:00 10.3 8 Sudoeste 31 Norte 0 -- -- 71
2019-03-30 08:00:00 9.1 7 Sudoeste 21 Oeste 0 -- -- 75
2019-03-30 07:00:00 9.2 8 Oeste 23 Este 0 -- -- 79
2019-03-30 06:00:00 8.9 5 Sudoeste 15 Oeste 0 -- -- 77
2019-03-30 05:00:00 9.1 5 Oeste 16 Sudeste 0 -- -- 80
2019-03-30 04:00:00 9.2 6 Sudoeste 19 Este 0 -- -- 79
2019-03-30 03:00:00 9.6 5 Oeste 15 Oeste 0 -- -- 79
2019-03-30 02:00:00 9.7 4 Oeste 21 Este 0 -- -- 76
2019-03-30 01:00:00 9.3 3 Sudoeste 9 Sudoeste 0 -- -- 78
2019-03-30 00:00:00 9.7 2 Sudoeste 18 Sudeste 0 -- -- 78
2019-03-29 23:00:00 9.7 5 Sudoeste 18 Sudeste 0 -- -- 79
2019-03-29 22:00:00 9.3 4 Oeste 16 Sur 0 -- -- 77
2019-03-29 21:00:00 9.4 5 Oeste 15 Este 0 -- -- 78
2019-03-29 20:00:00 9.9 3 Sur 19 Sudeste 0 -- -- 78
2019-03-29 19:00:00 11.3 7 Oeste 20 Sudeste 0 -- -- 72
2019-03-29 18:00:00 11.8 6 Sur 18 Sudeste 0 -- -- 73
2019-03-29 17:00:00 11.8 7 Oeste 19 Sur 0 -- -- 74
2019-03-29 16:00:00 12.4 5 Oeste 20 Sur 0 -- -- 70
2019-03-29 15:00:00 13.3 7 Sudoeste 19 Este 0 -- -- 66
2019-03-29 14:00:00 13.5 6 Sudoeste 20 Sur 0 -- -- 66
2019-03-29 13:00:00 13.8 8 Sudoeste 22 Sudeste 0 -- -- 63
2019-03-29 12:00:00 12.8 6 Sudoeste 18 Sudeste 0 -- -- 70
2019-03-29 11:00:00 11.9 6 Sudoeste 19 Sudeste 0 -- -- 70
2019-03-29 10:00:00 11.2 5 Oeste 19 Sur 0 -- -- 73
2019-03-29 09:00:00 9.6 5 Sudoeste 18 Nordeste 0 -- -- 77
2019-03-29 08:00:00 9.2 5 Sur 15 Este 0 -- -- 77
2019-03-29 07:00:00 8.9 5 Sudoeste 17 Sudeste 0 -- -- 75
2019-03-29 06:00:00 8.6 5 Sur 17 Este 0 -- -- 75
2019-03-29 05:00:00 8.6 3 Sudoeste 15 Sudoeste 0 -- -- 76
2019-03-29 04:00:00 8.6 7 Sur 15 Sudoeste 0 -- -- 74
2019-03-29 03:00:00 8.8 5 Sudoeste 22 Sudeste 0 -- -- 68
2019-03-29 02:00:00 9.2 7 Sudoeste 24 Sudoeste 0 -- -- 58
2019-03-29 01:00:00 9.4 8 Sur 22 Sur 0 -- -- 54
2019-03-29 00:00:00 9.5 6 Oeste 28 Sudoeste 0 -- -- 63
2019-03-28 23:00:00 10 11 Oeste 31 Sudoeste 0 -- -- 56
2019-03-28 22:00:00 10 7 Sudoeste 28 Norte 0 -- -- 59
2019-03-28 21:00:00 10.4 7 Sudoeste 28 Sudeste 0 -- -- 40
2019-03-28 20:00:00 10.9 7 Sudeste 23 Sudeste 0 -- -- 42
2019-03-28 19:00:00 11.7 7 Sudoeste 26 Sudeste 0 -- -- 44
2019-03-28 18:00:00 14 5 Sudeste 24 Este 0 -- -- 46
2019-03-28 17:00:00 14.2 9 Sur 25 Sur 0 -- -- 51
2019-03-28 16:00:00 15.3 8 Sudoeste 32 Sur 0 -- -- 50
2019-03-28 15:00:00 15.4 11 Sur 29 Este 0 -- -- 53
2019-03-28 14:00:00 14.8 10 Sur 27 Sur 0 -- -- 52
2019-03-28 13:00:00 15.2 10 Sudoeste 27 Sudoeste 0 -- -- 54
2019-03-28 12:00:00 14.4 7 Sur 29 Sur 0 -- -- 52
2019-03-28 11:00:00 13 7 Sudoeste 23 Sudoeste 0 -- -- 56
2019-03-28 10:00:00 11.3 6 Sudeste 22 Sur 0 -- -- 60
2019-03-28 09:00:00 9.4 7 Sur 25 Sudeste 0 -- -- 66
2019-03-28 08:00:00 8.4 7 Sur 18 Oeste 0 -- -- 67
2019-03-28 07:00:00 8.5 6 Sudoeste 19 Sudoeste 0 -- -- 70
2019-03-28 06:00:00 8.3 6 Oeste 27 Sudeste 0 -- -- 72
2019-03-28 05:00:00 8.1 6 Sudoeste 24 Sudeste 0 -- -- 69
2019-03-28 04:00:00 8.5 6 Sur 20 Sur 0 -- -- 67
2019-03-28 03:00:00 8.6 4 Sur 18 Nordeste 0 -- -- 64
2019-03-28 02:00:00 9.2 5 Noroeste 17 Sur 0 -- -- 60
2019-03-28 01:00:00 9.5 8 Sur 27 Sudeste 0 -- -- 68
2019-03-28 00:00:00 9.7 6 Sur 37 Sudeste 0 -- -- 73
2019-03-27 23:00:00 9.9 8 Sur 21 Sudoeste 0 -- -- 74
2019-03-27 22:00:00 9.8 5 Sur 20 Este 0 -- -- 73
2019-03-27 21:00:00 9.5 6 Sudoeste 22 Sudeste 0 -- -- 71
2019-03-27 20:00:00 9.7 6 Sur 27 Sudoeste 0 -- -- 65
2019-03-27 19:00:00 11 10 Sur 30 Sudoeste 0 -- -- 59
2019-03-27 18:00:00 12.9 8 Sudoeste 24 Sudoeste 0 -- -- 51
2019-03-27 17:00:00 14.2 7 Sur 26 Sur 0 -- -- 46
2019-03-27 16:00:00 14.5 8 Sudoeste 36 Sudeste 0 -- -- 41
2019-03-27 15:00:00 14.2 9 Sudeste 38 Sudeste 0 -- -- 39
2019-03-27 14:00:00 15 8 Sudoeste 32 Sudeste 0 -- -- 42
2019-03-27 13:00:00 14.3 7 Sur 29 Sudeste 0 -- -- 43
2019-03-27 12:00:00 13.1 11 Sudoeste 32 Sur 0 -- -- 49
2019-03-27 11:00:00 12.1 10 Sudoeste 35 Este 0 -- -- 54
2019-03-27 10:00:00 9.8 15 Sur 43 Sudeste 0 -- -- 64
2019-03-27 09:00:00 9 13 Sur 46 Sudeste 0 -- -- 67
2019-03-27 08:00:00 9 14 Sudeste 41 Este 0 -- -- 66
2019-03-27 07:00:00 8.8 9 Sudeste 45 Este 0 -- -- 68
2019-03-27 06:00:00 9.6 20 Este 76 Este 0 -- -- 56
2019-03-27 05:00:00 9.3 12 Sudeste 41 Sudeste 0 -- -- 61
2019-03-27 04:00:00 9.3 8 Este 33 Nordeste 0 -- -- 67
2019-03-27 03:00:00 9.6 11 Sudeste 35 Este 0 -- -- 69
2019-03-27 02:00:00 9.9 10 Sudeste 35 Este 0 -- -- 65
2019-03-27 01:00:00 10.1 10 Sudoeste 40 Sudeste 0 -- -- 61
2019-03-27 00:00:00 10.3 13 Sudoeste 35 Sudeste 0 -- -- 61